Terminal Aerodrome Forecast
Issued by NWS

Home | Current Version | Previous Version | Text Only | Print | Product List | Glossary On
Versions: 1 2 3 4 5 6 7 8 9 10 11 12 13 14 15 16
000
FTUS41 KPBZ 022014 AAB
TAFLBE
TAF AMD
KLBE 022014Z 0220/0318 24008KT P6SM SCT040
     FM022030 32006KT P6SM -SHRA VCTS BKN040CB
     FM022100 26005KT P6SM BKN040
     FM030900 00000KT 4SM BR SKC
     FM031400 VRB03KT P6SM SCT040=

USA.gov is the U.S. government's official web portal to all federal, state and local government web resources and services.